Time;durP1;ratioP1;P1;durP2;ratioP2;P2;SDS_P1;SDS_P2;PMS_P1;PMS_P2;Temp;Humidity;BMP_temperature;BMP_pressure;BME280_temperature;BME280_humidity;BME280_pressure;Samples;Min_cycle;Max_cycle;Signal;HPM_P1;HPM_P2
2022/12/18 00:01:36;;;;;;;29.87;23.47;;;12.90;99.90;;;;;;5065320;28;20230;-76
2022/12/18 00:04:14;;;;;;;32.30;22.57;;;12.90;99.90;;;;;;5062353;28;20217;-76
2022/12/18 00:06:41;;;;;;;32.63;23.13;;;12.90;99.90;;;;;;5093190;28;20191;-76
2022/12/18 00:09:08;;;;;;;32.10;23.00;;;12.80;99.90;;;;;;5064825;28;20298;-76
2022/12/18 00:11:35;;;;;;;30.50;23.50;;;12.80;99.90;;;;;;5070176;28;20650;-76
2022/12/18 00:14:01;;;;;;;29.93;23.20;;;12.80;99.90;;;;;;5045046;28;20603;-76
2022/12/18 00:16:35;;;;;;;29.50;23.10;;;12.80;99.90;;;;;;5067270;28;21324;-76
2022/12/18 00:19:01;;;;;;;30.93;22.70;;;12.80;99.90;;;;;;5049972;28;20217;-76
2022/12/18 00:21:32;;;;;;;28.83;21.93;;;12.80;99.90;;;;;;5059779;28;20267;-76
2022/12/18 00:23:59;;;;;;;32.10;23.13;;;12.70;99.90;;;;;;5057912;28;20211;-77
2022/12/18 00:26:31;;;;;;;28.37;22.17;;;12.70;99.90;;;;;;5058619;28;20213;-76
2022/12/18 00:29:09;;;;;;;30.37;22.43;;;12.70;99.90;;;;;;5053959;28;20195;-76
2022/12/18 00:31:38;;;;;;;27.47;21.30;;;12.80;99.90;;;;;;5065725;28;20273;-77
2022/12/18 00:34:04;;;;;;;28.87;22.20;;;12.80;99.90;;;;;;5064656;28;20851;-76
2022/12/18 00:36:33;;;;;;;31.27;21.87;;;12.80;99.90;;;;;;5073881;28;20656;-77
2022/12/18 00:39:05;;;;;;;27.10;21.10;;;12.70;99.90;;;;;;5044808;28;20638;-76
2022/12/18 00:44:19;;;;;;;28.40;20.90;;;12.80;99.90;;;;;;5063416;28;20214;-76
2022/12/18 00:46:47;;;;;;;29.77;22.50;;;12.80;99.90;;;;;;5049558;28;20232;-76
2022/12/18 00:49:17;;;;;;;27.30;21.20;;;12.80;99.90;;;;;;5065919;28;20643;-76
2022/12/18 00:51:43;;;;;;;28.23;19.80;;;12.80;99.90;;;;;;5067570;28;20187;-76
2022/12/18 00:54:09;;;;;;;25.20;20.23;;;12.70;99.90;;;;;;5052935;28;20229;-76
2022/12/18 00:56:38;;;;;;;29.17;19.97;;;12.70;99.90;;;;;;5066595;28;20202;-76
2022/12/18 00:59:05;;;;;;;26.77;19.73;;;12.70;99.90;;;;;;5056002;28;20302;-76
2022/12/18 01:01:32;;;;;;;29.00;20.70;;;12.60;99.90;;;;;;5073048;28;20195;-76
2022/12/18 01:04:02;;;;;;;29.27;20.87;;;12.70;99.90;;;;;;5045264;28;20667;-76
2022/12/18 01:06:29;;;;;;;26.47;21.20;;;12.70;99.90;;;;;;5069379;28;20209;-76
2022/12/18 01:08:55;;;;;;;31.20;21.97;;;12.60;99.90;;;;;;5061845;28;20201;-76
2022/12/18 01:11:23;;;;;;;29.83;21.20;;;12.70;99.90;;;;;;5080149;28;20198;-76
2022/12/18 01:13:53;;;;;;;29.93;20.00;;;12.60;99.90;;;;;;5061654;28;20194;-76
2022/12/18 01:16:21;;;;;;;29.53;20.73;;;12.60;99.90;;;;;;5063749;28;20195;-76
2022/12/18 01:18:47;;;;;;;26.23;20.10;;;12.50;99.90;;;;;;5070316;28;20562;-76
2022/12/18 01:21:16;;;;;;;31.10;21.63;;;12.50;99.90;;;;;;5065218;28;20197;-76
2022/12/18 01:23:50;;;;;;;29.67;20.17;;;12.50;99.90;;;;;;5051095;28;20226;-75
2022/12/18 01:26:16;;;;;;;26.97;20.10;;;12.60;99.90;;;;;;5040755;28;20982;-76
2022/12/18 01:28:43;;;;;;;29.53;20.33;;;12.50;99.90;;;;;;5062966;28;20939;-76
2022/12/18 01:31:25;;;;;;;25.30;20.40;;;12.50;99.90;;;;;;5057405;28;20205;-76
2022/12/18 01:33:52;;;;;;;27.97;19.57;;;12.50;99.90;;;;;;5060181;28;20362;-76
2022/12/18 01:36:24;;;;;;;28.00;20.77;;;12.50;99.90;;;;;;5073354;28;20186;-75
2022/12/18 01:38:53;;;;;;;26.37;20.03;;;12.50;99.90;;;;;;5065350;28;20215;-76
2022/12/18 01:42:01;;;;;;;25.10;20.23;;;12.50;99.90;;;;;;5063185;28;20182;-75
2022/12/18 01:45:00;;;;;;;26.93;19.83;;;12.50;99.90;;;;;;5064334;28;20226;-76
2022/12/18 01:47:52;;;;;;;22.43;17.77;;;12.50;99.90;;;;;;5067708;28;20245;-76
2022/12/18 01:50:37;;;;;;;21.13;16.70;;;12.50;99.90;;;;;;5073302;28;20588;-76
2022/12/18 01:53:15;;;;;;;23.67;16.60;;;12.40;99.90;;;;;;5057988;28;20236;-76
2022/12/18 01:55:56;;;;;;;18.40;15.23;;;12.40;99.90;;;;;;5060052;28;20191;-75
2022/12/18 01:59:02;;;;;;;20.50;16.53;;;12.40;99.90;;;;;;5062664;28;20208;-76
2022/12/18 02:01:31;;;;;;;21.83;15.33;;;12.30;99.90;;;;;;5055372;28;20202;-76
2022/12/18 02:04:25;;;;;;;21.77;15.70;;;12.30;99.90;;;;;;5044525;28;20214;-76
2022/12/18 02:07:02;;;;;;;20.93;15.60;;;12.30;99.90;;;;;;5075510;28;20191;-76
2022/12/18 02:09:56;;;;;;;17.23;14.97;;;12.20;99.90;;;;;;5062481;28;20574;-76
2022/12/18 02:12:48;;;;;;;18.60;14.83;;;12.20;99.90;;;;;;5054796;28;20783;-76
2022/12/18 02:15:25;;;;;;;22.00;16.07;;;12.20;99.90;;;;;;5053407;28;20557;-76
2022/12/18 02:18:07;;;;;;;21.30;15.23;;;12.20;99.90;;;;;;5068067;28;20205;-76
2022/12/18 02:21:13;;;;;;;21.00;16.73;;;12.20;99.90;;;;;;5066023;28;20210;-76
2022/12/18 02:24:00;;;;;;;23.80;17.17;;;12.20;99.90;;;;;;5069529;28;20234;-75
2022/12/18 02:26:59;;;;;;;22.63;16.63;;;12.30;99.90;;;;;;5056719;28;20183;-76
2022/12/18 02:29:48;;;;;;;22.63;17.03;;;12.30;99.90;;;;;;5050754;28;20264;-76
2022/12/18 02:32:21;;;;;;;20.27;16.17;;;12.30;99.90;;;;;;5063116;28;20273;-75
2022/12/18 02:34:50;;;;;;;23.00;16.60;;;12.30;99.90;;;;;;5066162;28;20191;-76
2022/12/18 02:37:20;;;;;;;25.57;16.67;;;12.30;99.90;;;;;;5068249;28;20218;-76
2022/12/18 02:39:52;;;;;;;21.60;15.90;;;12.30;99.90;;;;;;5056548;28;20209;-75
2022/12/18 02:42:20;;;;;;;20.63;14.67;;;12.30;99.90;;;;;;5068176;28;20195;-76
2022/12/18 02:44:51;;;;;;;16.77;13.70;;;12.20;99.90;;;;;;5078753;28;20200;-76
2022/12/18 02:47:24;;;;;;;18.90;15.00;;;12.20;99.90;;;;;;5066266;28;20189;-76
2022/12/18 02:50:11;;;;;;;21.93;13.47;;;12.20;99.90;;;;;;5062509;28;20651;-76
2022/12/18 02:53:16;;;;;;;19.53;13.20;;;12.20;99.90;;;;;;5059721;28;20186;-76
2022/12/18 02:55:51;;;;;;;15.13;12.80;;;12.10;99.90;;;;;;5072338;28;20204;-76
2022/12/18 02:58:54;;;;;;;17.07;12.80;;;12.10;99.90;;;;;;5061795;28;20281;-76
2022/12/18 03:01:59;;;;;;;15.37;12.03;;;12.10;99.90;;;;;;5060487;28;20187;-76
2022/12/18 03:04:40;;;;;;;14.60;10.97;;;12.00;99.90;;;;;;5076694;28;20260;-76
2022/12/18 03:07:18;;;;;;;12.77;9.97;;;11.90;99.90;;;;;;5073475;28;20180;-76
2022/12/18 03:09:51;;;;;;;13.13;10.23;;;11.90;99.90;;;;;;5063126;28;20198;-76
2022/12/18 03:12:32;;;;;;;12.80;10.03;;;11.90;99.90;;;;;;5090047;28;20284;-76
2022/12/18 03:15:22;;;;;;;12.30;10.00;;;11.90;99.90;;;;;;5064125;28;20190;-77
2022/12/18 03:17:59;;;;;;;13.77;9.83;;;11.90;99.90;;;;;;5034405;28;20252;-77
2022/12/18 03:20:30;;;;;;;12.40;9.10;;;11.90;99.90;;;;;;5048571;28;20673;-76
2022/12/18 03:23:08;;;;;;;10.10;8.40;;;11.90;99.90;;;;;;5060090;28;20217;-76
2022/12/18 03:25:42;;;;;;;8.87;7.83;;;11.80;99.90;;;;;;5066310;28;20209;-76
2022/12/18 03:28:20;;;;;;;11.13;8.73;;;11.80;99.90;;;;;;5067590;28;20294;-76
2022/12/18 03:30:56;;;;;;;11.07;7.97;;;11.80;99.90;;;;;;5051768;28;20234;-76
2022/12/18 03:33:34;;;;;;;8.77;7.70;;;11.80;99.90;;;;;;5069748;28;20207;-76
2022/12/18 03:36:01;;;;;;;11.87;8.30;;;11.80;99.90;;;;;;5063239;28;20244;-76
2022/12/18 03:38:27;;;;;;;9.70;8.33;;;11.80;99.90;;;;;;5053749;28;20186;-77
2022/12/18 03:41:06;;;;;;;12.87;8.90;;;11.70;99.90;;;;;;5051539;28;20671;-77
2022/12/18 03:43:40;;;;;;;14.13;8.83;;;11.70;99.90;;;;;;5059824;28;20293;-77
2022/12/18 03:46:50;;;;;;;11.73;9.20;;;11.70;99.90;;;;;;5073121;28;20260;-76
2022/12/18 03:49:26;;;;;;;11.23;8.60;;;11.70;99.90;;;;;;5039818;28;20191;-76
2022/12/18 03:52:13;;;;;;;13.50;9.37;;;11.80;99.90;;;;;;5081108;28;20792;-76
2022/12/18 03:54:42;;;;;;;13.10;10.27;;;11.60;99.90;;;;;;5062573;28;20218;-77
2022/12/18 03:57:25;;;;;;;13.77;9.80;;;11.50;99.90;;;;;;5047584;28;20547;-76
2022/12/18 04:00:00;;;;;;;11.77;9.97;;;11.50;99.90;;;;;;5065895;28;20281;-76
2022/12/18 04:02:26;;;;;;;12.27;10.27;;;11.60;99.90;;;;;;5066755;28;20239;-76
2022/12/18 04:04:58;;;;;;;12.53;10.03;;;11.70;99.90;;;;;;5069547;28;20238;-77
2022/12/18 04:07:25;;;;;;;14.83;10.53;;;11.70;99.90;;;;;;5065029;28;20229;-76
2022/12/18 04:09:57;;;;;;;12.73;10.30;;;11.70;99.90;;;;;;5052011;28;20262;-76
2022/12/18 04:12:29;;;;;;;12.30;9.37;;;11.70;99.90;;;;;;5066617;28;20290;-77
2022/12/18 04:14:56;;;;;;;12.53;10.00;;;11.60;99.90;;;;;;5059644;28;20658;-76
2022/12/18 04:17:23;;;;;;;11.03;9.57;;;11.60;99.90;;;;;;5086098;28;20222;-77
2022/12/18 04:19:50;;;;;;;14.60;9.97;;;11.70;99.90;;;;;;5050061;28;20190;-77
2022/12/18 04:22:16;;;;;;;11.30;9.70;;;11.70;99.90;;;;;;5065186;28;20870;-76
2022/12/18 04:24:43;;;;;;;14.00;9.90;;;11.70;99.90;;;;;;5065680;28;20237;-76
2022/12/18 04:27:09;;;;;;;14.47;10.23;;;11.70;99.90;;;;;;5039928;28;21183;-76
2022/12/18 04:29:35;;;;;;;11.80;10.33;;;11.70;99.90;;;;;;5068523;28;20750;-76
2022/12/18 04:32:02;;;;;;;16.00;10.83;;;11.70;99.90;;;;;;5064187;28;20715;-76
2022/12/18 04:34:28;;;;;;;14.50;11.50;;;11.70;99.90;;;;;;5052620;28;20280;-76
2022/12/18 04:36:54;;;;;;;16.70;12.00;;;11.70;99.90;;;;;;5048653;28;20198;-76
2022/12/18 04:39:21;;;;;;;15.33;12.30;;;11.70;99.90;;;;;;5066200;28;20245;-76
2022/12/18 04:41:47;;;;;;;15.60;12.40;;;11.70;99.90;;;;;;5060189;28;20230;-76
2022/12/18 04:44:14;;;;;;;16.57;13.33;;;11.70;99.90;;;;;;5069358;28;20598;-76
2022/12/18 04:46:40;;;;;;;18.03;13.10;;;11.80;99.90;;;;;;5067854;28;20186;-76
2022/12/18 04:49:06;;;;;;;17.50;13.63;;;11.80;99.90;;;;;;5071323;28;20644;-76
2022/12/18 04:51:33;;;;;;;16.43;13.10;;;11.80;99.90;;;;;;5091988;28;20201;-77
2022/12/18 04:53:59;;;;;;;14.83;13.23;;;11.80;99.90;;;;;;5057917;28;20198;-76
2022/12/18 04:56:25;;;;;;;18.10;13.57;;;11.80;99.90;;;;;;5053853;28;20195;-76
2022/12/18 04:58:53;;;;;;;16.77;12.43;;;11.80;99.90;;;;;;5029389;28;20191;-76
2022/12/18 05:01:22;;;;;;;17.37;13.90;;;11.80;99.90;;;;;;5072504;28;20213;-76
2022/12/18 05:03:48;;;;;;;16.30;12.53;;;11.80;99.90;;;;;;5085627;28;20209;-76
2022/12/18 05:06:15;;;;;;;16.73;13.00;;;11.70;99.90;;;;;;5068181;28;20183;-77
2022/12/18 05:08:41;;;;;;;16.90;12.87;;;11.70;99.90;;;;;;5060516;28;20184;-76
2022/12/18 05:11:17;;;;;;;16.83;12.37;;;11.70;99.90;;;;;;5082450;28;20635;-76
2022/12/18 05:13:45;;;;;;;17.37;11.97;;;11.70;99.90;;;;;;5048578;28;20909;-77
2022/12/18 05:16:14;;;;;;;14.07;11.00;;;11.70;99.90;;;;;;5060054;28;20259;-76
2022/12/18 05:18:41;;;;;;;18.50;12.13;;;11.60;99.90;;;;;;5083177;28;20218;-77
2022/12/18 05:21:07;;;;;;;15.53;12.67;;;11.60;99.90;;;;;;5057686;28;20187;-76
2022/12/18 05:23:35;;;;;;;17.43;12.27;;;11.70;99.90;;;;;;5055475;28;20211;-76
2022/12/18 05:26:07;;;;;;;13.70;11.40;;;11.70;99.90;;;;;;5089672;28;20233;-76
2022/12/18 05:28:36;;;;;;;13.57;10.87;;;11.70;99.90;;;;;;5065508;28;20269;-76
2022/12/18 05:31:05;;;;;;;14.33;10.40;;;11.70;99.90;;;;;;5065186;28;20954;-77
2022/12/18 05:33:34;;;;;;;16.37;10.83;;;11.80;99.90;;;;;;5049159;28;20243;-76
2022/12/18 05:36:09;;;;;;;12.20;8.83;;;11.80;99.90;;;;;;5084254;28;20186;-76
2022/12/18 05:38:39;;;;;;;11.80;10.13;;;11.80;99.90;;;;;;5066514;28;20221;-76
2022/12/18 05:41:07;;;;;;;10.80;8.53;;;11.80;99.90;;;;;;5065487;28;20187;-76
2022/12/18 05:43:39;;;;;;;10.93;9.23;;;11.90;99.90;;;;;;5067515;28;20195;-76
2022/12/18 05:46:13;;;;;;;11.57;8.90;;;11.90;99.90;;;;;;5057830;28;20183;-76
2022/12/18 05:48:39;;;;;;;14.17;9.50;;;12.00;99.90;;;;;;5066605;28;20185;-76
2022/12/18 05:51:10;;;;;;;10.50;9.40;;;12.00;99.90;;;;;;5067899;28;20175;-76
2022/12/18 05:53:38;;;;;;;11.23;9.30;;;12.10;99.90;;;;;;5066579;28;20187;-76
2022/12/18 05:56:09;;;;;;;13.33;8.80;;;12.10;99.90;;;;;;5048417;28;20186;-76
2022/12/18 05:58:36;;;;;;;10.67;8.40;;;12.10;99.90;;;;;;5056154;28;20671;-76
2022/12/18 06:01:16;;;;;;;9.30;7.83;;;12.10;99.90;;;;;;5066418;28;20270;-77
2022/12/18 06:03:42;;;;;;;9.20;7.97;;;12.10;99.90;;;;;;5050294;28;20205;-76
2022/12/18 06:06:28;;;;;;;9.90;8.07;;;12.10;99.90;;;;;;5081956;28;20892;-76
2022/12/18 06:08:56;;;;;;;11.83;7.67;;;12.20;99.90;;;;;;5056597;28;20189;-76
2022/12/18 06:11:26;;;;;;;12.10;7.83;;;12.50;99.90;;;;;;5076895;28;20187;-77
2022/12/18 06:13:55;;;;;;;10.63;8.10;;;12.60;99.90;;;;;;5065417;28;20190;-76
2022/12/18 06:16:22;;;;;;;10.10;7.77;;;12.70;99.90;;;;;;5061125;28;20281;-77
2022/12/18 06:18:48;;;;;;;13.67;8.40;;;12.70;99.90;;;;;;5071153;28;20274;-77
2022/12/18 06:21:17;;;;;;;10.23;7.53;;;12.80;99.90;;;;;;5073617;28;20190;-76
2022/12/18 06:23:45;;;;;;;9.97;7.80;;;12.80;99.90;;;;;;5072305;28;20285;-77
2022/12/18 06:26:13;;;;;;;8.17;7.27;;;12.90;99.90;;;;;;5059706;28;20570;-76
2022/12/18 06:28:40;;;;;;;10.97;6.97;;;12.90;99.90;;;;;;5069265;28;20208;-76
2022/12/18 06:31:07;;;;;;;9.67;7.53;;;12.90;99.90;;;;;;5051091;28;20179;-77
2022/12/18 06:33:35;;;;;;;9.40;7.37;;;12.90;99.90;;;;;;5088794;28;20187;-76
2022/12/18 06:36:11;;;;;;;8.13;6.60;;;13.00;99.90;;;;;;5059811;28;20175;-76
2022/12/18 06:38:41;;;;;;;9.17;7.30;;;13.10;99.90;;;;;;5085454;28;20268;-76
2022/12/18 06:41:14;;;;;;;8.67;7.03;;;13.10;99.90;;;;;;5089833;28;20179;-77
2022/12/18 06:43:43;;;;;;;8.53;6.50;;;13.20;99.90;;;;;;5050171;28;20298;-77
2022/12/18 06:46:12;;;;;;;9.70;6.47;;;13.20;99.90;;;;;;5067387;28;20322;-76
2022/12/18 06:48:38;;;;;;;8.43;6.10;;;13.30;99.90;;;;;;5060533;28;20187;-76
2022/12/18 06:51:05;;;;;;;6.50;5.53;;;13.30;99.90;;;;;;5071088;28;20265;-76
2022/12/18 06:53:33;;;;;;;6.73;5.87;;;13.30;99.90;;;;;;5078282;28;20669;-77
2022/12/18 06:56:06;;;;;;;10.47;5.73;;;13.40;99.90;;;;;;5059716;28;20194;-78
2022/12/18 06:58:33;;;;;;;6.40;5.47;;;13.40;99.90;;;;;;5066484;28;20782;-76
2022/12/18 07:01:10;;;;;;;6.83;5.60;;;13.40;99.90;;;;;;5069444;28;20227;-76
2022/12/18 07:03:38;;;;;;;6.23;5.30;;;13.50;99.90;;;;;;5057012;28;20182;-77
2022/12/18 07:06:05;;;;;;;6.43;5.47;;;13.50;99.90;;;;;;5068700;28;20202;-76
2022/12/18 07:08:33;;;;;;;6.87;5.97;;;13.50;99.90;;;;;;5050212;28;20187;-76
2022/12/18 07:11:03;;;;;;;7.33;6.50;;;13.50;99.90;;;;;;5065852;28;20175;-76
2022/12/18 07:13:30;;;;;;;7.80;7.00;;;13.50;99.90;;;;;;5068074;28;20285;-77
2022/12/18 07:16:17;;;;;;;9.30;6.77;;;13.60;99.90;;;;;;5067779;28;20194;-76
2022/12/18 07:18:45;;;;;;;8.47;7.30;;;13.60;99.90;;;;;;5058541;28;20695;-76
2022/12/18 07:21:17;;;;;;;9.60;8.37;;;13.60;99.90;;;;;;5068790;28;20627;-76
2022/12/18 07:23:46;;;;;;;10.07;8.60;;;13.60;99.90;;;;;;5077063;28;20207;-76
2022/12/18 07:26:16;;;;;;;10.50;8.63;;;13.60;99.90;;;;;;5066890;28;20190;-76
2022/12/18 07:28:42;;;;;;;9.70;8.00;;;13.70;99.90;;;;;;5060952;28;20602;-76
2022/12/18 07:31:19;;;;;;;11.47;8.13;;;13.70;99.90;;;;;;5051807;28;20190;-77
2022/12/18 07:33:46;;;;;;;10.90;8.27;;;13.80;99.90;;;;;;5069163;28;20282;-76
2022/12/18 07:36:13;;;;;;;10.37;7.80;;;13.80;99.90;;;;;;5082685;28;20185;-76
2022/12/18 07:38:40;;;;;;;8.87;7.97;;;13.80;99.90;;;;;;5047750;28;20190;-76
2022/12/18 07:41:12;;;;;;;9.93;8.27;;;13.80;99.90;;;;;;5058327;28;20535;-76
2022/12/18 07:43:40;;;;;;;11.00;7.63;;;13.80;99.90;;;;;;5067860;28;20594;-76
2022/12/18 07:46:08;;;;;;;12.93;8.63;;;13.90;99.90;;;;;;5054926;28;20176;-77
2022/12/18 07:48:35;;;;;;;12.97;9.23;;;13.90;99.90;;;;;;5059815;28;20655;-76
2022/12/18 07:51:04;;;;;;;13.30;10.13;;;13.80;99.90;;;;;;5067428;28;20187;-76
2022/12/18 07:53:31;;;;;;;14.13;10.27;;;13.80;99.90;;;;;;5064155;28;20671;-78
2022/12/18 07:56:00;;;;;;;13.40;9.87;;;13.90;99.90;;;;;;5063362;28;20187;-76
2022/12/18 07:58:27;;;;;;;11.60;10.13;;;13.90;99.90;;;;;;5077764;28;20187;-76
2022/12/18 08:00:53;;;;;;;11.93;10.33;;;13.90;99.90;;;;;;5074401;28;20257;-76
2022/12/18 08:03:20;;;;;;;13.83;10.53;;;14.00;99.90;;;;;;5044465;28;20528;-76
2022/12/18 08:05:49;;;;;;;12.50;11.20;;;14.00;99.90;;;;;;5061111;28;20260;-77
2022/12/18 08:08:15;;;;;;;11.60;10.10;;;14.00;99.90;;;;;;5062935;28;20270;-77
2022/12/18 08:10:41;;;;;;;14.23;11.17;;;14.00;99.90;;;;;;5064942;28;20244;-77
2022/12/18 08:13:08;;;;;;;12.53;10.27;;;14.00;99.90;;;;;;5047581;28;20191;-77
2022/12/18 08:15:34;;;;;;;11.87;10.50;;;14.00;99.90;;;;;;5063136;28;20222;-77
2022/12/18 08:18:00;;;;;;;13.27;10.70;;;14.00;99.90;;;;;;5049992;28;20179;-76
2022/12/18 08:20:26;;;;;;;12.43;10.70;;;14.10;99.90;;;;;;5047180;28;20183;-77
2022/12/18 08:22:53;;;;;;;13.87;10.33;;;14.10;99.90;;;;;;5078384;28;20210;-76
2022/12/18 08:25:20;;;;;;;14.23;10.10;;;14.10;99.90;;;;;;5060966;28;20676;-78
2022/12/18 08:27:46;;;;;;;11.50;9.83;;;14.10;99.90;;;;;;5059771;28;20266;-78
2022/12/18 08:30:13;;;;;;;11.27;10.07;;;14.20;99.90;;;;;;5061442;28;20179;-78
2022/12/18 08:32:39;;;;;;;14.17;9.30;;;14.20;99.90;;;;;;5062018;28;20210;-78
2022/12/18 08:35:06;;;;;;;11.67;9.20;;;14.10;99.90;;;;;;5043948;28;20189;-78
2022/12/18 08:37:32;;;;;;;11.87;9.87;;;14.20;99.90;;;;;;5063564;28;20189;-78
2022/12/18 08:39:59;;;;;;;14.03;9.47;;;14.20;99.90;;;;;;5064952;28;20191;-79
2022/12/18 08:45:10;;;;;;;11.53;9.77;;;14.30;99.90;;;;;;5089446;28;20202;-79
2022/12/18 08:47:37;;;;;;;12.83;9.47;;;14.30;99.90;;;;;;5085573;28;20178;-78
2022/12/18 08:50:03;;;;;;;10.53;9.23;;;14.30;99.90;;;;;;5061096;28;20182;-78
2022/12/18 08:52:32;;;;;;;13.50;10.20;;;14.30;99.90;;;;;;5049769;28;20194;-78
2022/12/18 08:54:59;;;;;;;10.60;9.50;;;14.40;99.90;;;;;;5078849;28;20199;-78
2022/12/18 08:57:25;;;;;;;12.00;9.20;;;14.40;99.90;;;;;;5075191;28;20431;-78
2022/12/18 08:59:51;;;;;;;11.53;9.50;;;14.50;99.90;;;;;;5054260;28;20182;-78
2022/12/18 09:02:18;;;;;;;11.43;10.20;;;14.50;99.90;;;;;;5042529;28;20194;-78
2022/12/18 09:04:47;;;;;;;10.53;9.40;;;14.50;99.90;;;;;;5047563;28;20215;-78
2022/12/18 09:07:14;;;;;;;11.57;10.30;;;14.60;99.90;;;;;;5078604;28;20237;-78
2022/12/18 09:09:40;;;;;;;11.80;10.57;;;14.60;99.90;;;;;;5096590;28;20175;-78
2022/12/18 09:12:07;;;;;;;11.83;10.43;;;14.70;99.90;;;;;;5065591;28;20186;-78
2022/12/18 09:14:34;;;;;;;15.27;11.63;;;14.80;99.90;;;;;;5090228;28;20534;-78
2022/12/18 09:17:00;;;;;;;14.20;11.97;;;14.90;99.90;;;;;;5061880;28;20190;-78
2022/12/18 09:19:26;;;;;;;14.83;11.30;;;15.00;99.90;;;;;;5070577;28;20183;-78
2022/12/18 09:21:52;;;;;;;14.90;12.47;;;15.00;99.90;;;;;;5062515;28;20201;-78
2022/12/18 09:24:19;;;;;;;15.87;12.80;;;15.00;99.90;;;;;;5067970;28;20198;-78
2022/12/18 09:26:45;;;;;;;17.77;12.17;;;15.10;99.90;;;;;;5070809;28;20205;-78
2022/12/18 09:29:12;;;;;;;14.20;12.43;;;15.20;99.90;;;;;;5096955;28;20666;-78
2022/12/18 09:31:39;;;;;;;17.57;13.47;;;15.30;99.90;;;;;;5059148;28;20726;-78
2022/12/18 09:34:05;;;;;;;16.83;13.07;;;15.40;99.90;;;;;;5063431;28;20187;-78
2022/12/18 09:36:32;;;;;;;16.13;13.30;;;15.40;99.90;;;;;;5061353;28;20187;-78
2022/12/18 09:38:58;;;;;;;16.53;12.67;;;15.40;99.90;;;;;;5074745;28;20186;-78
2022/12/18 09:41:45;;;;;;;13.37;12.03;;;15.40;99.90;;;;;;5077400;28;20291;-78
2022/12/18 09:44:45;;;;;;;14.47;12.33;;;15.50;99.90;;;;;;5088787;28;20764;-78
2022/12/18 09:47:45;;;;;;;19.07;12.83;;;15.40;99.90;;;;;;5068899;28;20178;-78
2022/12/18 09:50:27;;;;;;;14.60;11.67;;;15.50;99.90;;;;;;5032659;28;20187;-78
2022/12/18 09:53:00;;;;;;;13.90;11.90;;;15.50;99.90;;;;;;5068797;28;20293;-79
2022/12/18 09:55:43;;;;;;;12.10;10.80;;;15.50;99.90;;;;;;5068686;28;20589;-78
2022/12/18 09:58:34;;;;;;;11.03;9.67;;;15.50;99.90;;;;;;5048089;28;20190;-78
2022/12/18 10:01:01;;;;;;;10.40;9.30;;;15.50;99.90;;;;;;5077916;28;20229;-77
2022/12/18 10:03:28;;;;;;;10.23;9.13;;;15.50;99.90;;;;;;5067003;28;20195;-78
2022/12/18 10:06:08;;;;;;;11.17;9.10;;;15.40;99.90;;;;;;5085090;28;20236;-77
2022/12/18 10:09:13;;;;;;;9.80;8.80;;;15.40;99.90;;;;;;5053284;28;20209;-78
2022/12/18 10:12:19;;;;;;;11.03;8.70;;;15.50;99.90;;;;;;5071204;28;20521;-78
2022/12/18 10:15:32;;;;;;;11.50;8.77;;;15.50;99.90;;;;;;5061119;28;20226;-78
2022/12/18 10:18:21;;;;;;;10.50;8.60;;;15.60;99.90;;;;;;5064874;28;20184;-78
2022/12/18 10:20:54;;;;;;;11.90;9.63;;;15.70;99.90;;;;;;5068655;28;20663;-78
2022/12/18 10:23:40;;;;;;;10.30;9.17;;;15.80;99.90;;;;;;5055924;28;20203;-78
2022/12/18 10:26:10;;;;;;;12.67;9.33;;;15.80;99.90;;;;;;5052024;28;20178;-78
2022/12/18 10:28:41;;;;;;;10.27;9.03;;;15.90;99.90;;;;;;5067383;28;20183;-78
2022/12/18 10:31:24;;;;;;;13.00;9.33;;;15.90;99.90;;;;;;5070463;28;20183;-78
2022/12/18 10:33:53;;;;;;;9.70;8.63;;;16.00;99.90;;;;;;5053972;28;20183;-78
2022/12/18 10:36:20;;;;;;;12.33;8.97;;;16.00;99.90;;;;;;5069659;28;20178;-78
2022/12/18 10:38:46;;;;;;;17.50;9.27;;;16.10;99.90;;;;;;5050767;28;20175;-78
2022/12/18 10:41:21;;;;;;;12.87;8.70;;;16.10;99.90;;;;;;5064924;28;20225;-78
2022/12/18 10:43:48;;;;;;;10.53;8.73;;;16.20;99.90;;;;;;5052057;28;20717;-78
2022/12/18 10:46:20;;;;;;;10.33;9.23;;;16.30;99.90;;;;;;5081144;28;20206;-78
2022/12/18 10:48:46;;;;;;;11.30;9.63;;;16.40;99.90;;;;;;5067560;28;20673;-79
2022/12/18 10:51:37;;;;;;;9.67;8.67;;;16.60;99.90;;;;;;5062838;28;20262;-78
2022/12/18 10:54:17;;;;;;;12.87;8.77;;;16.70;99.90;;;;;;5078305;28;20647;-78
2022/12/18 10:56:44;;;;;;;9.33;8.33;;;16.80;99.90;;;;;;5066170;28;20218;-78
2022/12/18 10:59:17;;;;;;;11.10;8.83;;;16.80;99.90;;;;;;5085121;28;20187;-78
2022/12/18 11:01:58;;;;;;;12.10;8.53;;;16.80;99.90;;;;;;5051832;28;20186;-78
2022/12/18 11:04:31;;;;;;;11.87;8.93;;;16.80;99.90;;;;;;5059491;28;20294;-78
2022/12/18 11:07:10;;;;;;;10.40;8.13;;;16.90;99.90;;;;;;5082329;28;20305;-78
2022/12/18 11:09:40;;;;;;;9.37;7.83;;;17.10;99.90;;;;;;5052999;28;20337;-78
2022/12/18 11:12:18;;;;;;;8.50;7.60;;;17.20;99.90;;;;;;5052541;28;20179;-78
2022/12/18 11:14:59;;;;;;;9.02;7.75;;;17.40;99.90;;;;;;5068039;28;20607;-78
2022/12/18 11:17:34;;;;;;;9.55;8.13;;;17.40;99.90;;;;;;5084281;28;20191;-78
2022/12/18 11:20:06;;;;;;;8.57;7.60;;;17.40;99.90;;;;;;5066492;28;20187;-78
2022/12/18 11:22:38;;;;;;;9.95;8.25;;;17.40;99.90;;;;;;5069526;28;20209;-78
2022/12/18 11:25:19;;;;;;;9.38;8.00;;;17.50;99.90;;;;;;5052492;28;20582;-78
2022/12/18 11:27:57;;;;;;;11.32;8.20;;;17.50;99.90;;;;;;5069379;28;20186;-79
2022/12/18 11:30:32;;;;;;;9.07;7.75;;;17.50;99.90;;;;;;5069467;28;20632;-79
2022/12/18 11:33:10;;;;;;;11.82;8.25;;;17.60;99.90;;;;;;5065947;28;20757;-78
2022/12/18 11:35:52;;;;;;;14.05;7.93;;;17.60;99.90;;;;;;5084970;28;20197;-79
2022/12/18 11:38:25;;;;;;;9.87;8.87;;;17.60;99.90;;;;;;5082660;28;20214;-79
2022/12/18 11:41:16;;;;;;;8.63;7.73;;;17.60;99.90;;;;;;5063816;28;20190;-79
2022/12/18 11:44:00;;;;;;;10.17;8.80;;;17.60;99.90;;;;;;5051109;28;20241;-79
2022/12/18 11:46:39;;;;;;;9.10;7.53;;;17.70;99.90;;;;;;5063712;28;20197;-79
2022/12/18 11:49:24;;;;;;;12.63;8.80;;;17.70;99.90;;;;;;5068840;28;20212;-78
2022/12/18 11:52:23;;;;;;;14.03;8.23;;;17.70;99.90;;;;;;5078503;28;20662;-78
2022/12/18 11:54:59;;;;;;;9.63;7.90;;;17.80;99.90;;;;;;5068616;28;20270;-78
2022/12/18 11:57:41;;;;;;;8.03;7.03;;;17.80;99.90;;;;;;5065522;28;20641;-78
2022/12/18 12:00:21;;;;;;;9.80;7.67;;;17.80;99.90;;;;;;5077042;28;20265;-78
2022/12/18 12:03:22;;;;;;;11.33;8.70;;;17.80;99.90;;;;;;5069983;28;20182;-78
2022/12/18 12:06:03;;;;;;;12.43;8.67;;;17.80;99.90;;;;;;5069571;28;20206;-79
2022/12/18 12:08:54;;;;;;;10.30;7.57;;;17.70;99.90;;;;;;5049807;28;20183;-78
2022/12/18 12:11:42;;;;;;;11.60;8.83;;;17.80;99.90;;;;;;5047908;28;20497;-78
2022/12/18 12:14:26;;;;;;;10.70;8.63;;;17.70;99.90;;;;;;5059529;28;20186;-78
2022/12/18 12:17:19;;;;;;;9.30;8.30;;;17.70;99.90;;;;;;5067802;28;20632;-78
2022/12/18 12:19:54;;;;;;;9.20;8.30;;;17.70;99.90;;;;;;5081485;28;20218;-78
2022/12/18 12:22:38;;;;;;;11.20;8.70;;;17.70;99.90;;;;;;5062270;28;20305;-78
2022/12/18 12:25:28;;;;;;;10.00;9.00;;;17.70;99.90;;;;;;5064872;28;20331;-78
2022/12/18 12:28:01;;;;;;;11.33;8.37;;;17.70;99.90;;;;;;5066287;28;20736;-78
2022/12/18 12:30:48;;;;;;;9.33;7.90;;;17.70;99.90;;;;;;5085269;28;20563;-78
2022/12/18 12:33:48;;;;;;;11.07;8.00;;;17.70;99.90;;;;;;5065451;28;20217;-77
2022/12/18 12:36:32;;;;;;;11.47;7.80;;;17.70;99.90;;;;;;5041250;28;20194;-78
2022/12/18 12:39:08;;;;;;;9.93;8.07;;;17.60;99.90;;;;;;5068199;28;20655;-78
2022/12/18 12:44:49;;;;;;;12.50;8.00;;;17.60;99.90;;;;;;5068744;28;20206;-78
2022/12/18 12:47:38;;;;;;;9.60;8.43;;;17.60;99.90;;;;;;5061652;28;20571;-77
2022/12/18 12:50:15;;;;;;;11.23;8.07;;;17.50;99.90;;;;;;5063837;28;20677;-78
2022/12/18 12:52:49;;;;;;;10.33;8.57;;;17.50;99.90;;;;;;5060860;28;20608;-78
2022/12/18 12:55:28;;;;;;;11.07;8.40;;;17.50;99.90;;;;;;5065213;28;20547;-77
2022/12/18 12:58:13;;;;;;;10.37;8.47;;;17.40;99.90;;;;;;5060478;28;20196;-78
2022/12/18 13:01:25;;;;;;;10.40;8.37;;;17.30;99.90;;;;;;5067692;28;20191;-78
2022/12/18 13:03:56;;;;;;;10.10;7.97;;;17.30;99.90;;;;;;5054458;28;20187;-78
2022/12/18 13:06:57;;;;;;;11.93;9.10;;;17.30;99.90;;;;;;5063002;28;20172;-77
2022/12/18 13:09:23;;;;;;;10.10;8.73;;;17.20;99.90;;;;;;5048734;28;20191;-77
2022/12/18 13:14:41;;;;;;;12.07;8.87;;;17.20;99.90;;;;;;5058804;28;20179;-78
2022/12/18 13:17:20;;;;;;;11.10;9.00;;;17.10;99.90;;;;;;5067046;28;20183;-78
2022/12/18 13:20:09;;;;;;;10.70;8.60;;;17.10;99.90;;;;;;5058581;28;20209;-77